sensor_id;sensor_type;location;lat;lon;timestamp;temperature;humidity
4759;DHT22;2393;50.560;12.636;2023-04-01T00:01:31;8.00;99.90
4759;DHT22;2393;50.560;12.636;2023-04-01T00:03:59;8.00;99.90
4759;DHT22;2393;50.560;12.636;2023-04-01T00:06:29;8.10;99.90
4759;DHT22;2393;50.560;12.636;2023-04-01T00:08:57;8.10;99.90
4759;DHT22;2393;50.560;12.636;2023-04-01T00:11:25;8.10;99.90
4759;DHT22;2393;50.560;12.636;2023-04-01T00:13:55;8.10;99.90
4759;DHT22;2393;50.560;12.636;2023-04-01T00:16:23;8.10;99.90
4759;DHT22;2393;50.560;12.636;2023-04-01T00:18:52;8.10;99.90
4759;DHT22;2393;50.560;12.636;2023-04-01T00:21:22;8.10;99.90
4759;DHT22;2393;50.560;12.636;2023-04-01T00:23:51;8.10;99.90
4759;DHT22;2393;50.560;12.636;2023-04-01T00:26:19;8.10;99.90
4759;DHT22;2393;50.560;12.636;2023-04-01T00:28:48;8.10;99.90
4759;DHT22;2393;50.560;12.636;2023-04-01T00:31:19;8.10;99.90
4759;DHT22;2393;50.560;12.636;2023-04-01T00:33:47;8.10;99.90
4759;DHT22;2393;50.560;12.636;2023-04-01T00:36:18;8.10;99.90
4759;DHT22;2393;50.560;12.636;2023-04-01T00:38:46;8.10;99.90
4759;DHT22;2393;50.560;12.636;2023-04-01T00:41:16;8.10;99.90
4759;DHT22;2393;50.560;12.636;2023-04-01T00:43:46;8.10;99.90
4759;DHT22;2393;50.560;12.636;2023-04-01T00:46:14;8.20;99.90
4759;DHT22;2393;50.560;12.636;2023-04-01T00:48:47;8.10;99.90
4759;DHT22;2393;50.560;12.636;2023-04-01T00:51:17;8.10;99.90
4759;DHT22;2393;50.560;12.636;2023-04-01T00:53:48;8.10;99.90
4759;DHT22;2393;50.560;12.636;2023-04-01T00:56:19;8.10;99.90
4759;DHT22;2393;50.560;12.636;2023-04-01T00:58:51;8.10;99.90
4759;DHT22;2393;50.560;12.636;2023-04-01T01:01:20;8.00;99.90
4759;DHT22;2393;50.560;12.636;2023-04-01T01:03:51;8.10;99.90
4759;DHT22;2393;50.560;12.636;2023-04-01T01:06:26;8.10;99.90
4759;DHT22;2393;50.560;12.636;2023-04-01T01:09:11;8.10;99.90
4759;DHT22;2393;50.560;12.636;2023-04-01T01:11:44;8.10;99.90
4759;DHT22;2393;50.560;12.636;2023-04-01T01:14:26;8.20;99.90
4759;DHT22;2393;50.560;12.636;2023-04-01T01:17:02;8.10;99.90
4759;DHT22;2393;50.560;12.636;2023-04-01T01:20:04;8.10;99.90
4759;DHT22;2393;50.560;12.636;2023-04-01T01:22:58;8.10;99.90
4759;DHT22;2393;50.560;12.636;2023-04-01T01:25:33;8.10;99.90
4759;DHT22;2393;50.560;12.636;2023-04-01T01:28:24;8.10;99.90
4759;DHT22;2393;50.560;12.636;2023-04-01T01:30:58;8.10;99.90
4759;DHT22;2393;50.560;12.636;2023-04-01T01:33:40;8.00;99.90
4759;DHT22;2393;50.560;12.636;2023-04-01T01:36:13;8.00;99.90
4759;DHT22;2393;50.560;12.636;2023-04-01T01:38:42;8.00;99.90
4759;DHT22;2393;50.560;12.636;2023-04-01T01:41:12;8.10;99.90
4759;DHT22;2393;50.560;12.636;2023-04-01T01:43:43;8.10;99.90
4759;DHT22;2393;50.560;12.636;2023-04-01T01:46:17;8.00;99.90
4759;DHT22;2393;50.560;12.636;2023-04-01T01:48:47;8.10;99.90
4759;DHT22;2393;50.560;12.636;2023-04-01T01:51:18;8.10;99.90
4759;DHT22;2393;50.560;12.636;2023-04-01T01:53:48;8.10;99.90
4759;DHT22;2393;50.560;12.636;2023-04-01T01:56:18;8.10;99.90
4759;DHT22;2393;50.560;12.636;2023-04-01T01:58:50;8.10;99.90
4759;DHT22;2393;50.560;12.636;2023-04-01T02:01:23;8.10;99.90
4759;DHT22;2393;50.560;12.636;2023-04-01T02:03:54;8.10;99.90
4759;DHT22;2393;50.560;12.636;2023-04-01T02:06:27;8.10;99.90
4759;DHT22;2393;50.560;12.636;2023-04-01T02:08:56;8.10;99.90
4759;DHT22;2393;50.560;12.636;2023-04-01T02:11:28;8.10;99.90
4759;DHT22;2393;50.560;12.636;2023-04-01T02:14:01;8.10;99.90
4759;DHT22;2393;50.560;12.636;2023-04-01T02:16:33;8.10;99.90
4759;DHT22;2393;50.560;12.636;2023-04-01T02:19:04;8.10;99.90
4759;DHT22;2393;50.560;12.636;2023-04-01T02:21:37;8.10;99.90
4759;DHT22;2393;50.560;12.636;2023-04-01T02:24:11;8.10;99.90
4759;DHT22;2393;50.560;12.636;2023-04-01T02:26:41;8.10;99.90
4759;DHT22;2393;50.560;12.636;2023-04-01T02:29:11;8.10;99.90
4759;DHT22;2393;50.560;12.636;2023-04-01T02:31:40;8.10;99.90
4759;DHT22;2393;50.560;12.636;2023-04-01T02:34:09;8.00;99.90
4759;DHT22;2393;50.560;12.636;2023-04-01T02:36:39;8.00;99.90
4759;DHT22;2393;50.560;12.636;2023-04-01T02:39:07;8.00;99.90
4759;DHT22;2393;50.560;12.636;2023-04-01T02:41:39;8.00;99.90
4759;DHT22;2393;50.560;12.636;2023-04-01T02:44:08;8.00;99.90
4759;DHT22;2393;50.560;12.636;2023-04-01T02:46:37;7.90;99.90
4759;DHT22;2393;50.560;12.636;2023-04-01T02:49:06;7.90;99.90
4759;DHT22;2393;50.560;12.636;2023-04-01T02:51:34;7.90;99.90
4759;DHT22;2393;50.560;12.636;2023-04-01T02:54:04;7.90;99.90
4759;DHT22;2393;50.560;12.636;2023-04-01T02:56:32;7.90;99.90
4759;DHT22;2393;50.560;12.636;2023-04-01T02:59:00;8.00;99.90
4759;DHT22;2393;50.560;12.636;2023-04-01T03:01:28;7.90;99.90
4759;DHT22;2393;50.560;12.636;2023-04-01T03:03:56;7.90;99.90
4759;DHT22;2393;50.560;12.636;2023-04-01T03:06:24;8.00;99.90
4759;DHT22;2393;50.560;12.636;2023-04-01T03:08:52;8.00;99.90
4759;DHT22;2393;50.560;12.636;2023-04-01T03:11:22;7.90;99.90
4759;DHT22;2393;50.560;12.636;2023-04-01T03:13:50;8.00;99.90
4759;DHT22;2393;50.560;12.636;2023-04-01T03:16:19;8.00;99.90
4759;DHT22;2393;50.560;12.636;2023-04-01T03:18:50;8.00;99.90
4759;DHT22;2393;50.560;12.636;2023-04-01T03:21:20;7.90;99.90
4759;DHT22;2393;50.560;12.636;2023-04-01T03:23:49;7.90;99.90
4759;DHT22;2393;50.560;12.636;2023-04-01T03:26:18;7.90;99.90
4759;DHT22;2393;50.560;12.636;2023-04-01T03:28:48;7.90;99.90
4759;DHT22;2393;50.560;12.636;2023-04-01T03:31:16;7.90;99.90
4759;DHT22;2393;50.560;12.636;2023-04-01T03:33:50;7.90;99.90
4759;DHT22;2393;50.560;12.636;2023-04-01T03:36:18;7.90;99.90
4759;DHT22;2393;50.560;12.636;2023-04-01T03:38:47;7.90;99.90
4759;DHT22;2393;50.560;12.636;2023-04-01T03:41:21;7.90;99.90
4759;DHT22;2393;50.560;12.636;2023-04-01T03:43:51;7.80;99.90
4759;DHT22;2393;50.560;12.636;2023-04-01T03:46:21;7.80;99.90
4759;DHT22;2393;50.560;12.636;2023-04-01T03:48:49;7.80;99.90
4759;DHT22;2393;50.560;12.636;2023-04-01T03:51:17;7.80;99.90
4759;DHT22;2393;50.560;12.636;2023-04-01T03:53:45;7.90;99.90
4759;DHT22;2393;50.560;12.636;2023-04-01T03:56:13;7.90;99.90
4759;DHT22;2393;50.560;12.636;2023-04-01T03:58:41;7.90;99.90
4759;DHT22;2393;50.560;12.636;2023-04-01T04:01:16;7.90;99.90
4759;DHT22;2393;50.560;12.636;2023-04-01T04:03:45;7.90;99.90
4759;DHT22;2393;50.560;12.636;2023-04-01T04:06:14;7.90;99.90
4759;DHT22;2393;50.560;12.636;2023-04-01T04:08:42;7.80;99.90
4759;DHT22;2393;50.560;12.636;2023-04-01T04:11:11;7.80;99.90
4759;DHT22;2393;50.560;12.636;2023-04-01T04:13:42;7.80;99.90
4759;DHT22;2393;50.560;12.636;2023-04-01T04:16:11;7.80;99.90
4759;DHT22;2393;50.560;12.636;2023-04-01T04:18:45;7.80;99.90
4759;DHT22;2393;50.560;12.636;2023-04-01T04:21:14;7.80;99.90
4759;DHT22;2393;50.560;12.636;2023-04-01T04:23:44;7.80;99.90
4759;DHT22;2393;50.560;12.636;2023-04-01T04:26:15;7.80;99.90
4759;DHT22;2393;50.560;12.636;2023-04-01T04:28:49;7.80;99.90
4759;DHT22;2393;50.560;12.636;2023-04-01T04:31:19;7.90;99.90
4759;DHT22;2393;50.560;12.636;2023-04-01T04:33:50;7.80;99.90
4759;DHT22;2393;50.560;12.636;2023-04-01T04:36:18;7.80;99.90
4759;DHT22;2393;50.560;12.636;2023-04-01T04:38:48;7.80;99.90
4759;DHT22;2393;50.560;12.636;2023-04-01T04:41:18;7.80;99.90
4759;DHT22;2393;50.560;12.636;2023-04-01T04:43:51;7.80;99.90
4759;DHT22;2393;50.560;12.636;2023-04-01T04:46:19;7.80;99.90
4759;DHT22;2393;50.560;12.636;2023-04-01T04:48:52;7.90;99.90
4759;DHT22;2393;50.560;12.636;2023-04-01T04:51:21;7.90;99.90
4759;DHT22;2393;50.560;12.636;2023-04-01T04:53:50;7.80;99.90
4759;DHT22;2393;50.560;12.636;2023-04-01T04:56:23;7.80;99.90
4759;DHT22;2393;50.560;12.636;2023-04-01T04:59:06;7.70;99.90
4759;DHT22;2393;50.560;12.636;2023-04-01T05:01:47;7.70;99.90
4759;DHT22;2393;50.560;12.636;2023-04-01T05:04:16;7.80;99.90
4759;DHT22;2393;50.560;12.636;2023-04-01T05:06:44;7.70;99.90
4759;DHT22;2393;50.560;12.636;2023-04-01T05:09:13;7.70;99.90
4759;DHT22;2393;50.560;12.636;2023-04-01T05:11:42;7.70;99.90
4759;DHT22;2393;50.560;12.636;2023-04-01T05:14:13;7.70;99.90
4759;DHT22;2393;50.560;12.636;2023-04-01T05:16:43;7.70;99.90
4759;DHT22;2393;50.560;12.636;2023-04-01T05:19:11;7.80;99.90
4759;DHT22;2393;50.560;12.636;2023-04-01T05:21:41;7.70;99.90
4759;DHT22;2393;50.560;12.636;2023-04-01T05:24:09;7.80;99.90
4759;DHT22;2393;50.560;12.636;2023-04-01T05:26:38;7.80;99.90
4759;DHT22;2393;50.560;12.636;2023-04-01T05:29:06;7.80;99.90
4759;DHT22;2393;50.560;12.636;2023-04-01T05:31:34;7.80;99.90
4759;DHT22;2393;50.560;12.636;2023-04-01T05:34:03;7.90;99.90
4759;DHT22;2393;50.560;12.636;2023-04-01T05:36:32;7.80;99.90
4759;DHT22;2393;50.560;12.636;2023-04-01T05:39:02;7.80;99.90
4759;DHT22;2393;50.560;12.636;2023-04-01T05:41:34;7.80;99.90
4759;DHT22;2393;50.560;12.636;2023-04-01T05:44:03;7.80;99.90
4759;DHT22;2393;50.560;12.636;2023-04-01T05:46:40;7.90;99.90
4759;DHT22;2393;50.560;12.636;2023-04-01T05:49:15;7.90;99.90
4759;DHT22;2393;50.560;12.636;2023-04-01T05:51:43;7.90;99.90
4759;DHT22;2393;50.560;12.636;2023-04-01T05:54:12;8.00;99.90
4759;DHT22;2393;50.560;12.636;2023-04-01T05:56:41;8.00;99.90
4759;DHT22;2393;50.560;12.636;2023-04-01T05:59:09;8.00;99.90
4759;DHT22;2393;50.560;12.636;2023-04-01T06:01:38;8.00;99.90
4759;DHT22;2393;50.560;12.636;2023-04-01T06:04:06;8.00;99.90
4759;DHT22;2393;50.560;12.636;2023-04-01T06:06:35;8.10;99.90
4759;DHT22;2393;50.560;12.636;2023-04-01T06:09:14;8.10;99.90
4759;DHT22;2393;50.560;12.636;2023-04-01T06:12:23;8.10;99.90
4759;DHT22;2393;50.560;12.636;2023-04-01T06:15:05;8.10;99.90
4759;DHT22;2393;50.560;12.636;2023-04-01T06:17:47;8.10;99.90
4759;DHT22;2393;50.560;12.636;2023-04-01T06:20:24;8.20;99.90
4759;DHT22;2393;50.560;12.636;2023-04-01T06:45:57;8.30;99.90
4759;DHT22;2393;50.560;12.636;2023-04-01T06:48:59;8.30;99.90
4759;DHT22;2393;50.560;12.636;2023-04-01T06:51:56;8.30;99.90
4759;DHT22;2393;50.560;12.636;2023-04-01T06:54:49;8.30;99.90
4759;DHT22;2393;50.560;12.636;2023-04-01T06:57:43;8.30;99.90
4759;DHT22;2393;50.560;12.636;2023-04-01T07:00:15;8.40;99.90
4759;DHT22;2393;50.560;12.636;2023-04-01T07:02:48;8.40;99.90
4759;DHT22;2393;50.560;12.636;2023-04-01T07:05:22;8.50;99.90
4759;DHT22;2393;50.560;12.636;2023-04-01T07:07:53;8.50;99.90
4759;DHT22;2393;50.560;12.636;2023-04-01T07:10:31;8.60;99.90
4759;DHT22;2393;50.560;12.636;2023-04-01T07:13:29;8.80;99.90
4759;DHT22;2393;50.560;12.636;2023-04-01T07:16:09;8.90;99.90
4759;DHT22;2393;50.560;12.636;2023-04-01T07:18:44;9.00;99.90
4759;DHT22;2393;50.560;12.636;2023-04-01T07:21:23;9.00;99.90
4759;DHT22;2393;50.560;12.636;2023-04-01T07:23:57;9.10;99.90
4759;DHT22;2393;50.560;12.636;2023-04-01T07:26:35;9.20;99.90
4759;DHT22;2393;50.560;12.636;2023-04-01T07:29:09;9.50;99.90
4759;DHT22;2393;50.560;12.636;2023-04-01T07:32:16;9.70;99.90
4759;DHT22;2393;50.560;12.636;2023-04-01T07:34:53;9.90;99.90
4759;DHT22;2393;50.560;12.636;2023-04-01T07:37:29;10.10;99.90
4759;DHT22;2393;50.560;12.636;2023-04-01T07:40:10;10.20;99.90
4759;DHT22;2393;50.560;12.636;2023-04-01T07:43:03;10.20;99.90
4759;DHT22;2393;50.560;12.636;2023-04-01T07:45:45;10.20;99.90
4759;DHT22;2393;50.560;12.636;2023-04-01T07:48:22;10.30;99.90
4759;DHT22;2393;50.560;12.636;2023-04-01T07:50:57;10.40;99.90
4759;DHT22;2393;50.560;12.636;2023-04-01T07:57:19;11.00;99.90
4759;DHT22;2393;50.560;12.636;2023-04-01T07:59:59;11.50;99.90
4759;DHT22;2393;50.560;12.636;2023-04-01T08:03:14;11.80;99.90
4759;DHT22;2393;50.560;12.636;2023-04-01T08:05:52;12.00;99.90
4759;DHT22;2393;50.560;12.636;2023-04-01T08:08:30;12.10;99.90
4759;DHT22;2393;50.560;12.636;2023-04-01T08:11:43;12.20;99.90
4759;DHT22;2393;50.560;12.636;2023-04-01T08:14:50;12.30;99.90
4759;DHT22;2393;50.560;12.636;2023-04-01T08:18:05;12.30;99.90
4759;DHT22;2393;50.560;12.636;2023-04-01T08:20:41;12.20;99.90
4759;DHT22;2393;50.560;12.636;2023-04-01T08:23:14;12.00;99.90
4759;DHT22;2393;50.560;12.636;2023-04-01T08:25:48;11.80;99.90
4759;DHT22;2393;50.560;12.636;2023-04-01T08:28:23;11.70;99.90
4759;DHT22;2393;50.560;12.636;2023-04-01T08:30:53;11.60;99.90
4759;DHT22;2393;50.560;12.636;2023-04-01T08:33:26;11.50;99.90
4759;DHT22;2393;50.560;12.636;2023-04-01T08:36:05;11.50;99.90
4759;DHT22;2393;50.560;12.636;2023-04-01T08:38:38;11.40;99.90
4759;DHT22;2393;50.560;12.636;2023-04-01T08:41:26;11.50;99.90
4759;DHT22;2393;50.560;12.636;2023-04-01T08:44:59;11.50;99.90
4759;DHT22;2393;50.560;12.636;2023-04-01T08:47:55;11.60;99.90
4759;DHT22;2393;50.560;12.636;2023-04-01T08:50:51;11.50;99.90
4759;DHT22;2393;50.560;12.636;2023-04-01T08:53:37;11.40;99.90
4759;DHT22;2393;50.560;12.636;2023-04-01T08:56:17;11.30;99.90
4759;DHT22;2393;50.560;12.636;2023-04-01T08:59:04;11.30;99.90
4759;DHT22;2393;50.560;12.636;2023-04-01T09:01:55;11.30;99.90
4759;DHT22;2393;50.560;12.636;2023-04-01T09:04:52;11.40;99.90
4759;DHT22;2393;50.560;12.636;2023-04-01T09:07:39;11.40;99.90
4759;DHT22;2393;50.560;12.636;2023-04-01T09:10:34;11.50;99.90
4759;DHT22;2393;50.560;12.636;2023-04-01T09:14:05;11.50;99.90
4759;DHT22;2393;50.560;12.636;2023-04-01T09:16:53;11.60;99.90
4759;DHT22;2393;50.560;12.636;2023-04-01T09:19:33;11.70;99.90
4759;DHT22;2393;50.560;12.636;2023-04-01T09:25:36;12.00;99.90
4759;DHT22;2393;50.560;12.636;2023-04-01T09:28:10;12.10;99.90
4759;DHT22;2393;50.560;12.636;2023-04-01T09:31:15;12.10;99.90
4759;DHT22;2393;50.560;12.636;2023-04-01T09:34:21;12.20;99.90
4759;DHT22;2393;50.560;12.636;2023-04-01T09:37:15;12.00;99.90
4759;DHT22;2393;50.560;12.636;2023-04-01T09:40:00;11.90;99.90
4759;DHT22;2393;50.560;12.636;2023-04-01T09:42:42;11.80;99.90
4759;DHT22;2393;50.560;12.636;2023-04-01T09:45:37;11.90;99.90
4759;DHT22;2393;50.560;12.636;2023-04-01T09:48:19;12.10;99.90
4759;DHT22;2393;50.560;12.636;2023-04-01T09:51:00;12.20;99.90
4759;DHT22;2393;50.560;12.636;2023-04-01T09:53:41;12.10;99.90
4759;DHT22;2393;50.560;12.636;2023-04-01T09:59:50;11.70;99.90
4759;DHT22;2393;50.560;12.636;2023-04-01T10:09:39;11.60;99.90
4759;DHT22;2393;50.560;12.636;2023-04-01T10:12:49;11.70;99.90
4759;DHT22;2393;50.560;12.636;2023-04-01T10:15:49;11.80;99.90
4759;DHT22;2393;50.560;12.636;2023-04-01T10:27:41;11.70;99.90
4759;DHT22;2393;50.560;12.636;2023-04-01T10:31:02;11.70;99.90
4759;DHT22;2393;50.560;12.636;2023-04-01T10:34:05;11.80;99.90
4759;DHT22;2393;50.560;12.636;2023-04-01T10:36:51;11.90;99.90
4759;DHT22;2393;50.560;12.636;2023-04-01T10:39:55;12.00;99.90
4759;DHT22;2393;50.560;12.636;2023-04-01T10:43:06;12.10;99.90
4759;DHT22;2393;50.560;12.636;2023-04-01T10:49:43;12.10;99.90
4759;DHT22;2393;50.560;12.636;2023-04-01T10:55:53;12.20;99.90
4759;DHT22;2393;50.560;12.636;2023-04-01T11:03:06;12.10;99.90
4759;DHT22;2393;50.560;12.636;2023-04-01T11:10:03;11.90;99.90
4759;DHT22;2393;50.560;12.636;2023-04-01T11:16:18;11.60;99.90
4759;DHT22;2393;50.560;12.636;2023-04-01T11:19:14;11.70;99.90
4759;DHT22;2393;50.560;12.636;2023-04-01T11:22:10;11.70;99.90
4759;DHT22;2393;50.560;12.636;2023-04-01T11:31:40;11.70;99.90
4759;DHT22;2393;50.560;12.636;2023-04-01T11:34:32;11.70;99.90
4759;DHT22;2393;50.560;12.636;2023-04-01T11:37:17;11.80;99.90
4759;DHT22;2393;50.560;12.636;2023-04-01T11:40:17;12.00;99.90
4759;DHT22;2393;50.560;12.636;2023-04-01T11:43:34;12.20;99.90
4759;DHT22;2393;50.560;12.636;2023-04-01T11:46:41;12.50;99.90
4759;DHT22;2393;50.560;12.636;2023-04-01T11:49:25;12.70;99.90
4759;DHT22;2393;50.560;12.636;2023-04-01T11:52:25;12.60;99.90
4759;DHT22;2393;50.560;12.636;2023-04-01T11:55:19;12.50;99.90
4759;DHT22;2393;50.560;12.636;2023-04-01T11:58:02;12.60;99.90
4759;DHT22;2393;50.560;12.636;2023-04-01T12:00:53;12.60;99.90
4759;DHT22;2393;50.560;12.636;2023-04-01T12:03:50;12.90;99.90
4759;DHT22;2393;50.560;12.636;2023-04-01T12:06:29;13.00;99.90
4759;DHT22;2393;50.560;12.636;2023-04-01T12:09:04;13.10;99.90
4759;DHT22;2393;50.560;12.636;2023-04-01T12:11:41;13.10;99.90
4759;DHT22;2393;50.560;12.636;2023-04-01T12:14:18;13.00;99.90
4759;DHT22;2393;50.560;12.636;2023-04-01T12:16:55;12.90;99.90
4759;DHT22;2393;50.560;12.636;2023-04-01T12:19:32;12.70;99.90
4759;DHT22;2393;50.560;12.636;2023-04-01T12:22:23;12.50;99.90
4759;DHT22;2393;50.560;12.636;2023-04-01T12:25:07;12.30;99.90
4759;DHT22;2393;50.560;12.636;2023-04-01T12:27:53;12.30;99.90
4759;DHT22;2393;50.560;12.636;2023-04-01T12:30:52;12.30;99.90
4759;DHT22;2393;50.560;12.636;2023-04-01T12:33:42;12.20;99.90
4759;DHT22;2393;50.560;12.636;2023-04-01T12:36:20;12.20;99.90
4759;DHT22;2393;50.560;12.636;2023-04-01T12:39:07;12.30;99.90
4759;DHT22;2393;50.560;12.636;2023-04-01T12:41:45;12.40;99.90
4759;DHT22;2393;50.560;12.636;2023-04-01T12:44:46;12.70;99.90
4759;DHT22;2393;50.560;12.636;2023-04-01T12:50:26;13.10;99.90
4759;DHT22;2393;50.560;12.636;2023-04-01T12:53:06;13.20;99.90
4759;DHT22;2393;50.560;12.636;2023-04-01T12:55:39;13.20;99.90
4759;DHT22;2393;50.560;12.636;2023-04-01T12:58:27;13.10;99.90
4759;DHT22;2393;50.560;12.636;2023-04-01T13:01:25;13.00;99.90
4759;DHT22;2393;50.560;12.636;2023-04-01T13:04:32;12.90;99.90
4759;DHT22;2393;50.560;12.636;2023-04-01T13:07:25;12.70;99.90
4759;DHT22;2393;50.560;12.636;2023-04-01T13:10:02;12.50;99.90
4759;DHT22;2393;50.560;12.636;2023-04-01T13:12:59;12.50;99.90
4759;DHT22;2393;50.560;12.636;2023-04-01T13:15:37;12.50;99.90
4759;DHT22;2393;50.560;12.636;2023-04-01T13:18:24;12.40;99.90
4759;DHT22;2393;50.560;12.636;2023-04-01T13:21:00;12.30;99.90
4759;DHT22;2393;50.560;12.636;2023-04-01T13:23:37;12.20;99.90
4759;DHT22;2393;50.560;12.636;2023-04-01T13:26:15;12.20;99.90
4759;DHT22;2393;50.560;12.636;2023-04-01T13:28:50;12.10;99.90
4759;DHT22;2393;50.560;12.636;2023-04-01T13:31:38;12.00;99.90
4759;DHT22;2393;50.560;12.636;2023-04-01T13:34:21;12.00;99.90
4759;DHT22;2393;50.560;12.636;2023-04-01T13:36:59;11.80;99.90
4759;DHT22;2393;50.560;12.636;2023-04-01T13:39:39;11.80;99.90
4759;DHT22;2393;50.560;12.636;2023-04-01T13:42:21;11.80;99.90
4759;DHT22;2393;50.560;12.636;2023-04-01T13:44:56;11.70;99.90
4759;DHT22;2393;50.560;12.636;2023-04-01T13:51:05;11.80;99.90
4759;DHT22;2393;50.560;12.636;2023-04-01T13:56:41;11.70;99.90
4759;DHT22;2393;50.560;12.636;2023-04-01T14:02:25;11.50;99.90
4759;DHT22;2393;50.560;12.636;2023-04-01T14:05:15;11.50;99.90
4759;DHT22;2393;50.560;12.636;2023-04-01T14:08:13;11.60;99.90
4759;DHT22;2393;50.560;12.636;2023-04-01T14:10:45;11.60;99.90
4759;DHT22;2393;50.560;12.636;2023-04-01T14:13:20;11.60;99.90
4759;DHT22;2393;50.560;12.636;2023-04-01T14:16:04;11.50;99.90
4759;DHT22;2393;50.560;12.636;2023-04-01T14:18:58;11.60;99.90
4759;DHT22;2393;50.560;12.636;2023-04-01T14:21:38;11.50;99.90
4759;DHT22;2393;50.560;12.636;2023-04-01T14:24:29;11.50;99.90
4759;DHT22;2393;50.560;12.636;2023-04-01T14:27:17;11.40;99.90
4759;DHT22;2393;50.560;12.636;2023-04-01T14:30:01;11.40;99.90
4759;DHT22;2393;50.560;12.636;2023-04-01T14:32:45;11.50;99.90
4759;DHT22;2393;50.560;12.636;2023-04-01T14:35:25;11.50;99.90
4759;DHT22;2393;50.560;12.636;2023-04-01T14:38:26;11.50;99.90
4759;DHT22;2393;50.560;12.636;2023-04-01T14:41:02;11.60;99.90
4759;DHT22;2393;50.560;12.636;2023-04-01T14:43:49;11.60;99.90
4759;DHT22;2393;50.560;12.636;2023-04-01T14:46:50;11.60;99.90
4759;DHT22;2393;50.560;12.636;2023-04-01T14:49:22;11.50;99.90
4759;DHT22;2393;50.560;12.636;2023-04-01T14:51:52;11.40;99.90
4759;DHT22;2393;50.560;12.636;2023-04-01T14:54:32;11.40;99.90
4759;DHT22;2393;50.560;12.636;2023-04-01T14:57:10;11.40;99.90
4759;DHT22;2393;50.560;12.636;2023-04-01T14:59:46;11.40;99.90
4759;DHT22;2393;50.560;12.636;2023-04-01T15:02:33;11.40;99.90
4759;DHT22;2393;50.560;12.636;2023-04-01T15:05:13;11.50;99.90
4759;DHT22;2393;50.560;12.636;2023-04-01T15:08:01;11.50;99.90
4759;DHT22;2393;50.560;12.636;2023-04-01T15:13:48;11.30;99.90
4759;DHT22;2393;50.560;12.636;2023-04-01T15:16:26;11.30;99.90
4759;DHT22;2393;50.560;12.636;2023-04-01T15:19:04;11.20;99.90
4759;DHT22;2393;50.560;12.636;2023-04-01T15:24:28;11.00;99.90
4759;DHT22;2393;50.560;12.636;2023-04-01T15:27:11;10.90;99.90
4759;DHT22;2393;50.560;12.636;2023-04-01T15:29:58;10.80;99.90
4759;DHT22;2393;50.560;12.636;2023-04-01T15:32:43;10.70;99.90
4759;DHT22;2393;50.560;12.636;2023-04-01T15:35:21;10.70;99.90
4759;DHT22;2393;50.560;12.636;2023-04-01T15:37:55;10.60;99.90
4759;DHT22;2393;50.560;12.636;2023-04-01T15:40:28;10.60;99.90
4759;DHT22;2393;50.560;12.636;2023-04-01T15:43:10;10.60;99.90
4759;DHT22;2393;50.560;12.636;2023-04-01T15:45:49;10.50;99.90
4759;DHT22;2393;50.560;12.636;2023-04-01T15:48:30;10.50;99.90
4759;DHT22;2393;50.560;12.636;2023-04-01T15:51:16;10.50;99.90
4759;DHT22;2393;50.560;12.636;2023-04-01T15:54:01;10.40;99.90
4759;DHT22;2393;50.560;12.636;2023-04-01T15:56:52;10.40;99.90
4759;DHT22;2393;50.560;12.636;2023-04-01T15:59:36;10.40;99.90
4759;DHT22;2393;50.560;12.636;2023-04-01T16:02:15;10.40;99.90
4759;DHT22;2393;50.560;12.636;2023-04-01T16:04:56;10.30;99.90
4759;DHT22;2393;50.560;12.636;2023-04-01T16:07:41;10.30;99.90
4759;DHT22;2393;50.560;12.636;2023-04-01T16:10:31;10.30;99.90
4759;DHT22;2393;50.560;12.636;2023-04-01T16:13:19;10.30;99.90
4759;DHT22;2393;50.560;12.636;2023-04-01T16:15:54;10.20;99.90
4759;DHT22;2393;50.560;12.636;2023-04-01T16:18:44;10.20;99.90
4759;DHT22;2393;50.560;12.636;2023-04-01T16:21:27;10.10;99.90
4759;DHT22;2393;50.560;12.636;2023-04-01T16:24:10;10.10;99.90
4759;DHT22;2393;50.560;12.636;2023-04-01T16:26:47;10.10;99.90
4759;DHT22;2393;50.560;12.636;2023-04-01T16:29:24;10.10;99.90
4759;DHT22;2393;50.560;12.636;2023-04-01T16:32:00;10.00;99.90
4759;DHT22;2393;50.560;12.636;2023-04-01T16:34:36;10.00;99.90
4759;DHT22;2393;50.560;12.636;2023-04-01T16:37:08;10.00;99.90
4759;DHT22;2393;50.560;12.636;2023-04-01T16:39:44;10.10;99.90
4759;DHT22;2393;50.560;12.636;2023-04-01T16:42:24;10.00;99.90
4759;DHT22;2393;50.560;12.636;2023-04-01T16:44:57;10.00;99.90
4759;DHT22;2393;50.560;12.636;2023-04-01T16:47:30;10.00;99.90
4759;DHT22;2393;50.560;12.636;2023-04-01T16:50:07;10.00;99.90
4759;DHT22;2393;50.560;12.636;2023-04-01T16:52:53;10.00;99.90
4759;DHT22;2393;50.560;12.636;2023-04-01T16:55:35;10.00;99.90
4759;DHT22;2393;50.560;12.636;2023-04-01T16:58:03;10.00;99.90
4759;DHT22;2393;50.560;12.636;2023-04-01T17:00:38;9.90;99.90
4759;DHT22;2393;50.560;12.636;2023-04-01T17:03:13;9.90;99.90
4759;DHT22;2393;50.560;12.636;2023-04-01T17:06:03;9.90;99.90
4759;DHT22;2393;50.560;12.636;2023-04-01T17:08:43;9.90;99.90
4759;DHT22;2393;50.560;12.636;2023-04-01T17:11:18;9.90;99.90
4759;DHT22;2393;50.560;12.636;2023-04-01T17:13:53;9.90;99.90
4759;DHT22;2393;50.560;12.636;2023-04-01T17:19:33;9.90;99.90
4759;DHT22;2393;50.560;12.636;2023-04-01T17:22:13;9.90;99.90
4759;DHT22;2393;50.560;12.636;2023-04-01T17:24:58;9.90;99.90
4759;DHT22;2393;50.560;12.636;2023-04-01T17:27:39;9.90;99.90
4759;DHT22;2393;50.560;12.636;2023-04-01T17:30:23;9.90;99.90
4759;DHT22;2393;50.560;12.636;2023-04-01T17:33:07;9.90;99.90
4759;DHT22;2393;50.560;12.636;2023-04-01T17:35:40;9.80;99.90
4759;DHT22;2393;50.560;12.636;2023-04-01T17:38:23;9.80;99.90
4759;DHT22;2393;50.560;12.636;2023-04-01T17:41:00;9.80;99.90
4759;DHT22;2393;50.560;12.636;2023-04-01T17:43:39;9.80;99.90
4759;DHT22;2393;50.560;12.636;2023-04-01T17:46:26;9.80;99.90
4759;DHT22;2393;50.560;12.636;2023-04-01T17:49:02;9.80;99.90
4759;DHT22;2393;50.560;12.636;2023-04-01T17:51:37;9.80;99.90
4759;DHT22;2393;50.560;12.636;2023-04-01T17:54:20;9.70;99.90
4759;DHT22;2393;50.560;12.636;2023-04-01T17:57:05;9.70;99.90
4759;DHT22;2393;50.560;12.636;2023-04-01T17:59:38;9.70;99.90
4759;DHT22;2393;50.560;12.636;2023-04-01T18:02:21;9.70;99.90
4759;DHT22;2393;50.560;12.636;2023-04-01T18:05:14;9.70;99.90
4759;DHT22;2393;50.560;12.636;2023-04-01T18:07:55;9.60;99.90
4759;DHT22;2393;50.560;12.636;2023-04-01T18:10:39;9.60;99.90
4759;DHT22;2393;50.560;12.636;2023-04-01T18:13:32;9.60;99.90
4759;DHT22;2393;50.560;12.636;2023-04-01T18:16:47;9.50;99.90
4759;DHT22;2393;50.560;12.636;2023-04-01T18:25:02;9.40;99.90
4759;DHT22;2393;50.560;12.636;2023-04-01T18:28:19;9.40;99.90
4759;DHT22;2393;50.560;12.636;2023-04-01T18:30:54;9.40;99.90
4759;DHT22;2393;50.560;12.636;2023-04-01T18:33:29;9.40;99.90
4759;DHT22;2393;50.560;12.636;2023-04-01T18:36:09;9.40;99.90
4759;DHT22;2393;50.560;12.636;2023-04-01T18:38:47;9.30;99.90
4759;DHT22;2393;50.560;12.636;2023-04-01T18:41:22;9.40;99.90
4759;DHT22;2393;50.560;12.636;2023-04-01T18:44:03;9.40;99.90
4759;DHT22;2393;50.560;12.636;2023-04-01T18:46:38;9.40;99.90
4759;DHT22;2393;50.560;12.636;2023-04-01T18:49:13;9.40;99.90
4759;DHT22;2393;50.560;12.636;2023-04-01T18:51:46;9.40;99.90
4759;DHT22;2393;50.560;12.636;2023-04-01T18:54:21;9.40;99.90
4759;DHT22;2393;50.560;12.636;2023-04-01T18:56:51;9.30;99.90